Time;durP1;ratioP1;P1;durP2;ratioP2;P2;SDS_P1;SDS_P2;PMS_P1;PMS_P2;Temp;Humidity;BMP_temperature;BMP_pressure;BME280_temperature;BME280_humidity;BME280_pressure;Samples;Min_cycle;Max_cycle;Signal;HPM_P1;HPM_P2
2023/03/20 00:01:11;;;;;;;78.40;73.20;;;9.20;99.90;;;;;;5071295;28;20464;-78
2023/03/20 00:03:39;;;;;;;85.33;80.27;;;9.10;99.90;;;;;;5071428;28;20446;-78
2023/03/20 00:06:12;;;;;;;106.77;100.87;;;9.10;99.90;;;;;;5071343;28;20580;-77
2023/03/20 00:08:40;;;;;;;81.27;76.07;;;9.10;99.90;;;;;;5071464;28;20478;-78
2023/03/20 00:11:22;;;;;;;82.33;77.00;;;9.10;99.90;;;;;;5071405;28;20478;-78
2023/03/20 00:13:49;;;;;;;79.17;74.03;;;9.10;99.90;;;;;;5071343;28;20996;-77
2023/03/20 00:16:17;;;;;;;82.77;77.37;;;9.10;99.90;;;;;;5070738;28;20969;-77
2023/03/20 00:18:44;;;;;;;59.20;54.50;;;9.10;99.90;;;;;;5071198;28;20494;-78
2023/03/20 00:21:19;;;;;;;56.53;52.20;;;9.10;99.90;;;;;;5070947;28;20521;-78
2023/03/20 00:23:46;;;;;;;51.03;46.83;;;9.10;99.90;;;;;;5071273;28;21052;-77
2023/03/20 00:26:23;;;;;;;41.17;37.37;;;9.10;99.90;;;;;;5071219;28;20451;-77
2023/03/20 00:28:51;;;;;;;30.10;26.80;;;9.10;99.90;;;;;;5071055;28;20477;-77
2023/03/20 00:31:25;;;;;;;29.80;25.27;;;9.10;99.90;;;;;;5070883;28;20475;-78
2023/03/20 00:33:53;;;;;;;31.80;25.80;;;9.00;99.90;;;;;;5070627;28;20827;-78
2023/03/20 00:36:25;;;;;;;33.87;27.13;;;9.00;99.90;;;;;;5071183;28;20478;-77
2023/03/20 00:38:53;;;;;;;34.83;22.00;;;9.00;99.90;;;;;;5071106;28;20477;-77
2023/03/20 00:41:31;;;;;;;33.00;23.37;;;9.00;99.90;;;;;;5071009;28;20474;-78
2023/03/20 00:44:01;;;;;;;30.10;24.63;;;9.00;99.90;;;;;;5070926;28;20445;-77
2023/03/20 00:46:34;;;;;;;35.23;31.70;;;8.90;99.90;;;;;;5070889;28;20945;-77
2023/03/20 00:49:06;;;;;;;38.20;35.00;;;8.90;99.90;;;;;;5070463;28;20470;-78
2023/03/20 00:51:33;;;;;;;28.77;25.73;;;8.90;99.90;;;;;;5070354;28;20481;-77
2023/03/20 00:54:00;;;;;;;28.97;24.57;;;8.90;99.90;;;;;;5053155;28;20469;-77
2023/03/20 00:56:34;;;;;;;30.23;23.90;;;8.90;99.90;;;;;;5071315;28;20458;-77
2023/03/20 00:59:02;;;;;;;27.57;24.77;;;8.80;99.90;;;;;;5070839;28;20504;-78
2023/03/20 01:01:31;;;;;;;27.63;24.73;;;8.80;99.90;;;;;;5070685;28;20481;-78
2023/03/20 01:03:59;;;;;;;32.97;22.60;;;8.80;99.90;;;;;;5070859;28;20461;-77
2023/03/20 01:06:28;;;;;;;24.37;21.27;;;8.70;99.90;;;;;;5072742;28;20446;-77
2023/03/20 01:08:56;;;;;;;24.27;20.67;;;8.60;99.90;;;;;;5074157;28;21012;-77
2023/03/20 01:11:24;;;;;;;33.73;30.50;;;8.60;99.90;;;;;;5074005;28;20473;-77
2023/03/20 01:13:53;;;;;;;37.23;33.50;;;8.50;99.90;;;;;;5073630;28;20595;-77
2023/03/20 01:16:24;;;;;;;31.50;28.23;;;8.50;99.90;;;;;;5074306;28;20889;-77
2023/03/20 01:18:51;;;;;;;32.27;28.90;;;8.40;99.90;;;;;;5074314;28;20466;-77
2023/03/20 01:21:20;;;;;;;30.73;26.90;;;8.30;99.90;;;;;;5074008;28;20450;-77
2023/03/20 01:23:47;;;;;;;35.13;28.30;;;8.20;99.90;;;;;;5074098;28;20583;-77
2023/03/20 01:26:32;;;;;;;30.17;27.00;;;8.20;99.90;;;;;;5056256;28;20789;-77
2023/03/20 01:29:04;;;;;;;32.67;29.20;;;8.00;99.90;;;;;;5054041;28;20483;-77
2023/03/20 01:31:31;;;;;;;32.87;29.37;;;8.00;99.90;;;;;;5068593;28;20557;-77
2023/03/20 01:34:00;;;;;;;34.83;31.07;;;7.90;99.90;;;;;;5055831;28;20970;-77
2023/03/20 01:36:37;;;;;;;36.33;33.00;;;7.90;99.90;;;;;;5073795;28;20478;-77
2023/03/20 01:39:11;;;;;;;40.00;36.03;;;7.90;99.90;;;;;;5073360;28;20554;-77
2023/03/20 01:41:40;;;;;;;38.07;34.73;;;7.80;99.90;;;;;;5072927;28;20492;-77
2023/03/20 01:44:20;;;;;;;47.17;43.07;;;7.80;99.90;;;;;;5072470;28;20450;-77
2023/03/20 01:46:48;;;;;;;50.20;46.10;;;7.70;99.90;;;;;;5073934;28;20462;-77
2023/03/20 01:49:55;;;;;;;64.40;59.60;;;7.60;99.90;;;;;;5073720;28;20557;-77
2023/03/20 01:52:23;;;;;;;80.83;75.47;;;7.50;99.90;;;;;;5059965;28;20839;-77
2023/03/20 01:54:51;;;;;;;84.10;78.83;;;7.30;99.90;;;;;;5039007;28;20493;-77
2023/03/20 01:57:23;;;;;;;124.97;118.57;;;7.20;99.90;;;;;;5072238;28;20554;-77
2023/03/20 01:59:58;;;;;;;147.47;140.57;;;7.00;99.90;;;;;;5071712;28;20500;-77
2023/03/20 02:02:32;;;;;;;169.77;160.70;;;7.00;99.90;;;;;;5055899;28;20524;-77
2023/03/20 02:05:03;;;;;;;193.10;184.03;;;6.80;99.90;;;;;;5073228;28;20454;-77
2023/03/20 02:07:31;;;;;;;214.43;204.03;;;6.80;99.90;;;;;;5072773;28;20533;-77
2023/03/20 02:09:58;;;;;;;254.87;242.97;;;6.70;99.90;;;;;;5073276;28;20447;-77
2023/03/20 02:12:25;;;;;;;265.97;253.53;;;6.70;99.90;;;;;;5072976;28;20506;-77
2023/03/20 02:15:09;;;;;;;274.33;260.97;;;6.70;99.90;;;;;;5054237;28;20823;-77
2023/03/20 02:17:38;;;;;;;298.83;284.33;;;6.70;99.90;;;;;;5072828;28;20474;-77
2023/03/20 02:20:26;;;;;;;309.83;294.67;;;6.70;99.90;;;;;;5072460;28;21123;-77
2023/03/20 02:23:32;;;;;;;317.33;301.13;;;6.60;99.90;;;;;;5055956;28;20468;-77
2023/03/20 02:26:25;;;;;;;334.70;317.20;;;6.70;99.90;;;;;;5072916;28;20549;-77
2023/03/20 02:29:41;;;;;;;354.63;336.20;;;6.60;99.90;;;;;;5069118;28;20470;-77
2023/03/20 02:32:54;;;;;;;350.17;332.27;;;6.60;99.90;;;;;;5086527;22;20480;-79
2023/03/20 02:35:53;;;;;;;340.90;323.20;;;6.80;99.90;;;;;;5064611;28;20446;-79
2023/03/20 02:38:55;;;;;;;343.10;324.90;;;6.80;99.90;;;;;;5068438;28;20474;-79
2023/03/20 02:41:31;;;;;;;328.57;311.70;;;6.80;99.90;;;;;;5049664;28;20537;-79
2023/03/20 02:44:05;;;;;;;336.70;319.67;;;6.70;99.90;;;;;;5072353;28;20446;-79
2023/03/20 02:46:42;;;;;;;342.00;324.40;;;6.50;99.90;;;;;;5072555;28;20450;-79
2023/03/20 02:49:18;;;;;;;349.87;332.17;;;6.40;99.90;;;;;;5060141;28;20579;-79
2023/03/20 02:51:50;;;;;;;351.93;334.43;;;6.30;99.90;;;;;;5054921;28;20442;-79
2023/03/20 02:54:27;;;;;;;450.67;427.07;;;6.20;99.90;;;;;;5072227;28;20454;-79
2023/03/20 02:57:01;;;;;;;480.93;454.13;;;6.20;99.90;;;;;;5053813;28;20449;-79
2023/03/20 02:59:33;;;;;;;514.50;485.10;;;6.20;99.90;;;;;;5071698;28;20465;-79
2023/03/20 03:02:07;;;;;;;509.90;480.70;;;6.30;99.90;;;;;;5069608;28;20473;-79
2023/03/20 03:04:39;;;;;;;499.20;471.00;;;6.40;99.90;;;;;;5072393;28;20453;-79
2023/03/20 03:07:09;;;;;;;465.50;439.27;;;6.60;99.90;;;;;;5071908;28;20453;-79
2023/03/20 03:09:41;;;;;;;442.70;418.60;;;6.80;99.90;;;;;;5054194;28;20565;-79
2023/03/20 03:12:13;;;;;;;400.43;377.93;;;6.80;99.90;;;;;;5054394;28;20442;-79
2023/03/20 03:14:43;;;;;;;286.03;270.70;;;7.00;99.90;;;;;;5071778;28;21174;-79
2023/03/20 03:17:11;;;;;;;253.13;239.73;;;7.20;99.90;;;;;;5071706;28;20450;-79
2023/03/20 03:19:42;;;;;;;233.77;221.57;;;7.30;99.90;;;;;;5071496;28;20474;-79
2023/03/20 03:22:11;;;;;;;190.20;180.50;;;7.20;99.90;;;;;;5054396;28;20492;-79
2023/03/20 03:24:43;;;;;;;164.40;156.27;;;7.20;99.90;;;;;;5072139;28;20450;-79
2023/03/20 03:27:18;;;;;;;149.73;142.60;;;7.10;99.90;;;;;;5054273;28;20451;-79
2023/03/20 03:29:52;;;;;;;143.60;137.10;;;6.90;99.90;;;;;;5071100;28;20533;-79
2023/03/20 03:32:24;;;;;;;138.70;131.73;;;6.70;99.90;;;;;;5070363;28;20485;-79
2023/03/20 03:34:53;;;;;;;162.17;154.93;;;6.70;99.90;;;;;;5053602;28;20496;-79
2023/03/20 03:37:29;;;;;;;181.37;173.37;;;6.60;99.90;;;;;;5071283;28;20450;-79
2023/03/20 03:40:05;;;;;;;193.13;184.27;;;6.70;99.90;;;;;;5071768;28;20453;-79
2023/03/20 03:42:39;;;;;;;201.07;191.67;;;6.70;99.90;;;;;;5071189;28;20548;-79
2023/03/20 03:45:12;;;;;;;213.87;203.87;;;6.80;99.90;;;;;;5056046;28;20455;-79
2023/03/20 03:47:43;;;;;;;231.53;220.00;;;6.80;99.90;;;;;;5071750;28;20532;-79
2023/03/20 03:50:15;;;;;;;226.10;215.37;;;7.00;99.90;;;;;;5071692;28;20537;-79
2023/03/20 03:52:44;;;;;;;205.00;195.37;;;7.10;99.90;;;;;;5071432;28;20486;-79
2023/03/20 03:55:15;;;;;;;190.03;180.33;;;7.30;99.90;;;;;;5071842;28;20457;-79
2023/03/20 03:57:49;;;;;;;179.73;171.13;;;7.40;99.90;;;;;;5071274;28;20476;-79
2023/03/20 04:00:22;;;;;;;189.13;179.47;;;7.40;99.90;;;;;;5070866;28;20482;-79
2023/03/20 04:02:52;;;;;;;176.50;168.17;;;7.40;99.90;;;;;;5070177;28;20573;-79
2023/03/20 04:05:20;;;;;;;172.80;164.30;;;7.40;99.90;;;;;;5053428;28;20454;-79
2023/03/20 04:07:48;;;;;;;172.47;163.90;;;7.40;99.90;;;;;;5053360;28;20986;-79
2023/03/20 04:10:16;;;;;;;162.67;154.40;;;7.30;99.90;;;;;;5071155;28;20563;-80
2023/03/20 04:12:46;;;;;;;158.10;149.97;;;7.30;99.90;;;;;;5050759;28;20449;-79
2023/03/20 04:15:14;;;;;;;153.10;145.27;;;7.30;99.90;;;;;;5065006;28;20507;-79
2023/03/20 04:17:45;;;;;;;160.57;152.77;;;7.30;99.90;;;;;;5071528;28;20473;-79
2023/03/20 04:20:14;;;;;;;169.57;160.33;;;7.20;99.90;;;;;;5071666;28;20461;-79
2023/03/20 04:22:42;;;;;;;174.87;166.60;;;7.20;99.90;;;;;;5071118;28;20470;-79
2023/03/20 04:25:16;;;;;;;180.30;171.60;;;7.10;99.90;;;;;;5072062;28;20478;-78
2023/03/20 04:27:44;;;;;;;190.97;181.47;;;7.10;99.90;;;;;;5068202;28;20467;-79
2023/03/20 04:30:12;;;;;;;188.57;179.80;;;7.00;99.90;;;;;;5061521;28;20469;-80
2023/03/20 04:32:40;;;;;;;201.07;191.07;;;6.90;99.90;;;;;;5036751;28;20907;-79
2023/03/20 04:35:08;;;;;;;209.13;199.10;;;6.80;99.90;;;;;;5070790;28;20877;-80
2023/03/20 04:37:36;;;;;;;221.13;210.10;;;6.70;99.90;;;;;;5071926;28;20496;-79
2023/03/20 04:40:03;;;;;;;238.77;226.53;;;6.70;99.90;;;;;;5069293;28;20537;-80
2023/03/20 04:42:37;;;;;;;244.83;232.53;;;6.70;99.90;;;;;;5063295;28;20858;-79
2023/03/20 04:45:07;;;;;;;258.30;245.70;;;6.60;99.90;;;;;;5074226;28;20450;-79
2023/03/20 04:47:35;;;;;;;281.33;266.37;;;6.60;99.90;;;;;;5073654;28;20834;-79
2023/03/20 04:50:02;;;;;;;282.50;268.13;;;6.50;99.90;;;;;;5074665;28;20461;-79
2023/03/20 04:52:30;;;;;;;285.50;270.73;;;6.50;99.90;;;;;;5074847;28;20962;-79
2023/03/20 04:54:57;;;;;;;297.57;281.17;;;6.50;99.90;;;;;;5074578;28;20491;-80
2023/03/20 04:57:24;;;;;;;298.97;282.70;;;6.40;99.90;;;;;;5059450;28;20451;-78
2023/03/20 04:59:52;;;;;;;310.27;293.83;;;6.30;99.90;;;;;;5054744;28;20454;-79
2023/03/20 05:02:22;;;;;;;332.67;315.07;;;6.30;99.90;;;;;;5063750;28;20472;-79
2023/03/20 05:04:49;;;;;;;349.53;331.17;;;6.20;99.90;;;;;;5074975;28;20451;-79
2023/03/20 05:07:16;;;;;;;381.47;361.37;;;6.20;99.90;;;;;;5074651;28;20457;-78
2023/03/20 05:09:43;;;;;;;420.23;398.17;;;6.20;99.90;;;;;;5074727;28;20450;-78
2023/03/20 05:12:10;;;;;;;446.83;422.70;;;6.20;99.90;;;;;;5069488;28;20450;-79
2023/03/20 05:14:38;;;;;;;475.67;449.17;;;6.10;99.90;;;;;;5074427;28;20457;-79
2023/03/20 05:17:05;;;;;;;503.13;473.90;;;6.20;99.90;;;;;;5071069;28;20459;-79
2023/03/20 05:22:31;;;;;;;555.93;524.67;;;6.20;99.90;;;;;;5066584;28;20501;-79
2023/03/20 05:24:59;;;;;;;561.87;529.97;;;6.20;99.90;;;;;;5074142;28;20451;-79
2023/03/20 05:27:26;;;;;;;569.60;536.90;;;6.20;99.90;;;;;;5073778;28;20954;-80
2023/03/20 05:29:53;;;;;;;566.07;533.17;;;6.20;99.90;;;;;;5074189;28;20450;-79
2023/03/20 05:32:20;;;;;;;557.93;526.00;;;6.20;99.90;;;;;;5074122;28;20462;-79
2023/03/20 05:34:49;;;;;;;557.33;524.17;;;6.20;99.90;;;;;;5073930;28;20451;-79
2023/03/20 05:37:17;;;;;;;552.20;519.40;;;6.20;99.90;;;;;;5073954;28;20454;-79
2023/03/20 05:39:44;;;;;;;555.47;523.07;;;6.20;99.90;;;;;;5073737;28;20447;-79
2023/03/20 05:42:11;;;;;;;557.53;525.40;;;6.20;99.90;;;;;;5074059;28;20557;-79
2023/03/20 05:44:39;;;;;;;567.23;534.13;;;6.20;99.90;;;;;;5073367;28;20447;-79
2023/03/20 05:47:07;;;;;;;566.33;533.23;;;6.20;99.90;;;;;;5073903;28;20450;-79
2023/03/20 05:49:34;;;;;;;569.57;536.27;;;6.10;99.90;;;;;;5073536;28;20466;-79
2023/03/20 05:52:02;;;;;;;577.57;543.97;;;6.20;99.90;;;;;;5073401;28;20506;-79
2023/03/20 05:54:30;;;;;;;581.13;546.60;;;6.10;99.90;;;;;;5055701;28;20461;-79
2023/03/20 05:56:57;;;;;;;575.43;541.83;;;6.10;99.90;;;;;;5073493;28;20451;-79
2023/03/20 05:59:24;;;;;;;579.20;544.23;;;6.10;99.90;;;;;;5073593;28;20485;-79
2023/03/20 06:01:53;;;;;;;569.77;534.57;;;6.10;99.90;;;;;;5055828;28;20953;-79
2023/03/20 06:04:20;;;;;;;567.23;532.87;;;6.20;99.90;;;;;;5074119;28;20474;-79
2023/03/20 06:06:47;;;;;;;561.33;527.97;;;6.20;99.90;;;;;;5055388;28;20563;-79
2023/03/20 06:09:16;;;;;;;540.60;507.90;;;6.30;99.90;;;;;;5073548;28;20470;-79
2023/03/20 06:11:45;;;;;;;522.17;492.10;;;6.30;99.90;;;;;;5072651;28;20454;-79
2023/03/20 06:14:12;;;;;;;507.33;477.13;;;6.30;99.90;;;;;;5073306;28;20826;-78
2023/03/20 06:16:39;;;;;;;476.47;449.60;;;6.40;99.90;;;;;;5073283;28;20451;-79
2023/03/20 06:19:06;;;;;;;435.50;410.70;;;6.40;99.90;;;;;;5073093;28;20515;-80
2023/03/20 06:21:33;;;;;;;412.00;388.80;;;6.50;99.90;;;;;;5072840;28;20461;-79
2023/03/20 06:24:00;;;;;;;386.40;365.40;;;6.50;99.90;;;;;;5073013;28;20477;-80
2023/03/20 06:26:28;;;;;;;361.80;341.60;;;6.50;99.90;;;;;;5072837;28;20507;-79
2023/03/20 06:28:57;;;;;;;349.87;330.70;;;6.60;99.90;;;;;;5072309;28;20470;-79
2023/03/20 06:31:23;;;;;;;347.03;328.20;;;6.70;99.90;;;;;;5072327;28;20454;-79
2023/03/20 06:33:51;;;;;;;325.83;307.40;;;6.70;99.90;;;;;;5072595;28;20453;-79
2023/03/20 06:36:18;;;;;;;305.73;288.23;;;6.80;99.90;;;;;;5072976;28;20450;-79
2023/03/20 06:38:45;;;;;;;293.97;277.97;;;6.80;99.90;;;;;;5072305;28;20476;-80
2023/03/20 06:41:11;;;;;;;298.07;280.83;;;6.90;99.90;;;;;;5065404;28;20456;-79
2023/03/20 06:43:41;;;;;;;269.63;255.07;;;7.00;99.90;;;;;;5067125;28;20466;-79
2023/03/20 06:46:09;;;;;;;243.60;230.40;;;7.00;99.90;;;;;;5072147;28;20455;-79
2023/03/20 06:48:38;;;;;;;225.80;213.50;;;7.10;99.90;;;;;;5055819;28;20518;-79
2023/03/20 06:51:05;;;;;;;209.83;199.00;;;7.10;99.90;;;;;;5054022;28;20446;-79
2023/03/20 06:53:32;;;;;;;185.73;176.43;;;7.20;99.90;;;;;;5072211;28;20451;-82
2023/03/20 06:55:59;;;;;;;196.40;186.23;;;7.20;99.90;;;;;;5071349;28;20454;-79
2023/03/20 06:58:26;;;;;;;187.73;177.77;;;7.30;99.90;;;;;;5072656;28;20466;-79
2023/03/20 07:00:54;;;;;;;189.47;179.70;;;7.40;99.90;;;;;;5072200;28;20896;-79
2023/03/20 07:03:21;;;;;;;186.47;176.80;;;7.40;99.90;;;;;;5070706;28;20470;-79
2023/03/20 07:05:48;;;;;;;174.70;165.97;;;7.50;99.90;;;;;;5071375;28;20446;-79
2023/03/20 07:08:15;;;;;;;169.73;160.97;;;7.50;99.90;;;;;;5053286;28;20494;-79
2023/03/20 07:10:43;;;;;;;168.53;159.63;;;7.60;99.90;;;;;;5053768;28;20473;-79
2023/03/20 07:13:11;;;;;;;164.10;155.53;;;7.70;99.90;;;;;;5070869;28;20449;-79
2023/03/20 07:15:37;;;;;;;152.80;145.40;;;7.80;99.90;;;;;;5053030;28;20465;-79
2023/03/20 07:18:06;;;;;;;103.77;97.87;;;7.80;99.90;;;;;;5071281;28;20550;-79
2023/03/20 07:20:33;;;;;;;50.70;47.10;;;8.00;99.90;;;;;;5071555;28;21019;-79
2023/03/20 07:22:59;;;;;;;31.10;28.10;;;8.00;99.90;;;;;;5053719;28;20454;-79
2023/03/20 07:25:28;;;;;;;26.70;17.43;;;8.10;99.90;;;;;;5053017;28;20451;-79
2023/03/20 07:27:55;;;;;;;25.70;13.37;;;8.00;99.90;;;;;;5070789;28;20489;-79
2023/03/20 07:30:22;;;;;;;20.13;12.70;;;8.20;99.90;;;;;;5070913;28;20455;-79
2023/03/20 07:32:49;;;;;;;22.87;10.53;;;8.20;99.90;;;;;;5071081;28;20454;-79
2023/03/20 07:35:17;;;;;;;18.63;11.97;;;8.40;99.90;;;;;;5053332;28;20459;-79
2023/03/20 07:37:44;;;;;;;18.40;10.47;;;8.50;99.90;;;;;;5070910;28;20569;-78
2023/03/20 07:40:12;;;;;;;16.97;10.43;;;8.60;99.90;;;;;;5053198;28;20495;-79
2023/03/20 07:42:39;;;;;;;20.13;9.67;;;8.80;99.90;;;;;;5032175;28;20978;-78
2023/03/20 07:45:08;;;;;;;18.40;11.70;;;8.90;99.90;;;;;;5052845;28;20477;-79
2023/03/20 07:47:35;;;;;;;23.80;9.77;;;9.00;99.90;;;;;;5053636;28;20609;-79
2023/03/20 07:50:05;;;;;;;15.20;8.20;;;9.10;99.90;;;;;;5053360;28;20475;-83
2023/03/20 07:52:33;;;;;;;15.57;8.57;;;9.20;99.90;;;;;;5051221;28;20450;-80
2023/03/20 07:55:00;;;;;;;18.87;9.30;;;9.30;99.90;;;;;;5071020;28;21143;-79
2023/03/20 07:57:27;;;;;;;13.93;7.60;;;9.40;99.90;;;;;;5069575;28;20832;-78
2023/03/20 07:59:53;;;;;;;17.63;9.00;;;9.50;99.90;;;;;;5070464;28;20450;-79
2023/03/20 08:02:20;;;;;;;14.77;8.20;;;9.50;99.90;;;;;;5069644;28;20845;-79
2023/03/20 08:04:47;;;;;;;17.07;7.70;;;9.60;99.90;;;;;;5065366;28;20474;-79
2023/03/20 08:07:15;;;;;;;18.50;10.17;;;9.60;99.90;;;;;;5056388;28;20442;-79
2023/03/20 08:09:45;;;;;;;25.07;9.47;;;9.70;99.90;;;;;;5076077;28;20455;-79
2023/03/20 08:12:12;;;;;;;12.80;7.07;;;9.90;99.90;;;;;;5070778;28;20534;-79
2023/03/20 08:14:39;;;;;;;16.17;7.43;;;9.90;99.90;;;;;;5071497;28;20825;-79
2023/03/20 08:17:06;;;;;;;13.40;7.70;;;9.90;99.90;;;;;;5069647;28;20531;-80
2023/03/20 08:19:33;;;;;;;18.00;7.60;;;9.90;99.90;;;;;;5073366;28;20457;-79
2023/03/20 08:21:59;;;;;;;16.73;7.83;;;9.80;99.90;;;;;;5057490;28;20840;-79
2023/03/20 08:24:26;;;;;;;14.70;7.00;;;10.00;99.90;;;;;;5075406;28;20461;-83
2023/03/20 08:26:55;;;;;;;12.83;7.70;;;10.20;99.90;;;;;;5075477;28;21032;-83
2023/03/20 08:29:22;;;;;;;16.90;8.40;;;10.20;99.90;;;;;;5075460;28;20476;-80
2023/03/20 08:31:49;;;;;;;16.20;7.00;;;10.30;99.90;;;;;;5083990;22;20458;-81
2023/03/20 08:34:16;;;;;;;14.80;7.13;;;10.10;99.90;;;;;;5074550;28;20454;-80
2023/03/20 08:36:43;;;;;;;17.23;7.23;;;10.20;99.90;;;;;;5074794;28;20466;-81
2023/03/20 08:39:10;;;;;;;17.73;7.40;;;10.10;99.90;;;;;;5056559;28;20532;-80
2023/03/20 08:41:40;;;;;;;12.77;6.33;;;10.10;99.90;;;;;;5074813;28;20813;-80
2023/03/20 08:44:09;;;;;;;14.53;8.00;;;10.20;99.90;;;;;;5056909;28;21072;-80
2023/03/20 08:46:35;;;;;;;16.83;8.53;;;10.20;99.90;;;;;;5074285;28;20490;-81
2023/03/20 08:49:04;;;;;;;21.40;7.50;;;10.50;99.90;;;;;;5074839;28;20470;-81
2023/03/20 08:51:30;;;;;;;15.03;7.00;;;10.80;99.90;;;;;;5074685;28;21086;-81
2023/03/20 08:53:58;;;;;;;14.60;7.67;;;11.00;99.90;;;;;;5074657;28;20458;-81
2023/03/20 08:56:25;;;;;;;13.57;7.30;;;11.10;99.90;;;;;;5075147;28;20450;-81
2023/03/20 08:58:54;;;;;;;14.90;7.03;;;10.90;99.90;;;;;;5074676;28;20484;-81
2023/03/20 09:01:22;;;;;;;16.50;7.43;;;11.00;99.20;;;;;;5074048;28;20454;-81
2023/03/20 09:03:49;;;;;;;14.37;5.87;;;11.30;99.90;;;;;;5074013;28;20981;-81
2023/03/20 09:06:16;;;;;;;14.00;6.40;;;11.10;99.40;;;;;;5056112;28;20548;-81
2023/03/20 09:08:43;;;;;;;16.77;6.73;;;10.90;98.00;;;;;;5038746;28;20849;-81
2023/03/20 09:11:10;;;;;;;13.43;7.43;;;10.70;99.10;;;;;;5073704;28;20461;-81
2023/03/20 09:13:37;;;;;;;11.50;5.57;;;10.70;99.30;;;;;;5055474;28;20454;-81
2023/03/20 09:16:05;;;;;;;16.02;7.45;;;10.50;98.20;;;;;;5073173;28;20445;-81
2023/03/20 09:18:33;;;;;;;16.37;6.60;;;10.50;99.40;;;;;;5073929;28;20219;-81
2023/03/20 09:21:00;;;;;;;16.93;7.20;;;10.50;97.80;;;;;;5073904;28;20553;-81
2023/03/20 09:23:27;;;;;;;19.30;6.50;;;10.50;98.60;;;;;;5074167;28;20838;-81
2023/03/20 09:25:57;;;;;;;13.33;6.20;;;10.60;98.90;;;;;;5073739;28;20465;-84
2023/03/20 09:28:24;;;;;;;13.13;6.13;;;10.80;98.60;;;;;;5073023;28;20470;-84
2023/03/20 09:30:56;;;;;;;15.67;6.93;;;10.90;98.50;;;;;;5056121;28;20450;-84
2023/03/20 09:33:23;;;;;;;18.50;6.70;;;10.90;98.00;;;;;;5073954;28;20542;-84
2023/03/20 09:35:52;;;;;;;14.93;5.03;;;10.80;97.50;;;;;;5073958;28;20537;-80
2023/03/20 09:38:20;;;;;;;10.13;4.40;;;10.70;97.40;;;;;;5073863;28;20485;-81
2023/03/20 09:40:52;;;;;;;12.97;5.13;;;10.50;96.70;;;;;;5073539;28;20451;-81
2023/03/20 09:43:44;;;;;;;10.30;3.60;;;10.80;97.20;;;;;;5073365;28;20458;-81
2023/03/20 09:46:25;;;;;;;12.40;4.67;;;10.90;97.10;;;;;;5073637;28;20529;-81
2023/03/20 09:49:02;;;;;;;8.80;4.40;;;11.10;95.50;;;;;;5073565;28;20477;-81
2023/03/20 09:51:36;;;;;;;9.17;3.33;;;11.10;94.40;;;;;;5073345;28;20450;-81
2023/03/20 09:54:07;;;;;;;11.17;3.43;;;10.70;92.50;;;;;;5073418;28;20946;-82
2023/03/20 09:56:34;;;;;;;8.20;3.93;;;10.70;93.40;;;;;;5073668;28;20434;-81
2023/03/20 09:59:03;;;;;;;11.10;3.27;;;11.00;94.20;;;;;;5073370;28;20570;-81
2023/03/20 10:01:35;;;;;;;8.87;3.70;;;10.90;92.10;;;;;;5073219;28;20456;-81
2023/03/20 10:04:08;;;;;;;13.93;3.60;;;10.90;92.30;;;;;;5071535;28;20470;-81
2023/03/20 10:06:36;;;;;;;6.93;3.23;;;10.80;92.10;;;;;;5072258;28;20480;-82
2023/03/20 10:09:12;;;;;;;10.90;3.03;;;10.80;92.60;;;;;;5071983;28;20478;-82
2023/03/20 10:11:54;;;;;;;11.40;3.93;;;10.70;94.60;;;;;;5071924;28;20482;-81
2023/03/20 10:14:33;;;;;;;8.67;3.20;;;10.60;92.70;;;;;;5072550;28;20481;-84
2023/03/20 10:17:12;;;;;;;11.20;3.10;;;10.30;92.00;;;;;;5055331;28;20462;-81
2023/03/20 10:19:44;;;;;;;21.47;3.30;;;10.30;93.40;;;;;;5073360;28;20474;-81
2023/03/20 10:22:21;;;;;;;8.87;4.13;;;10.50;93.60;;;;;;5072612;28;20454;-81
2023/03/20 10:24:52;;;;;;;11.73;3.97;;;10.60;93.10;;;;;;5072687;28;21088;-81
2023/03/20 10:27:24;;;;;;;11.33;3.57;;;10.70;92.80;;;;;;5072942;28;20458;-81
2023/03/20 10:30:02;;;;;;;12.00;4.27;;;10.70;92.00;;;;;;5073081;28;20442;-80
2023/03/20 10:32:35;;;;;;;10.83;4.70;;;10.70;92.60;;;;;;5072787;28;20454;-80
2023/03/20 10:35:23;;;;;;;12.30;4.70;;;10.70;92.60;;;;;;5054244;28;20443;-80
2023/03/20 10:38:09;;;;;;;8.83;4.23;;;10.70;92.30;;;;;;5071287;28;20501;-80
2023/03/20 10:40:40;;;;;;;18.37;4.37;;;10.80;93.30;;;;;;5053646;28;20450;-80
2023/03/20 10:43:15;;;;;;;10.07;4.53;;;10.70;92.50;;;;;;5055028;28;20447;-80
2023/03/20 10:45:46;;;;;;;11.10;4.50;;;10.70;92.80;;;;;;5054313;28;20485;-81
2023/03/20 10:48:21;;;;;;;10.57;4.30;;;10.50;93.10;;;;;;5054025;28;20998;-83
2023/03/20 10:50:53;;;;;;;12.43;4.60;;;10.50;93.40;;;;;;5054181;28;20458;-81
2023/03/20 10:53:32;;;;;;;10.10;3.23;;;10.30;92.70;;;;;;5054466;28;20455;-81
2023/03/20 10:56:02;;;;;;;7.23;3.97;;;10.20;93.40;;;;;;5072453;28;20454;-80
2023/03/20 10:58:32;;;;;;;8.10;4.00;;;10.10;93.80;;;;;;5072083;28;20496;-84
2023/03/20 11:00:59;;;;;;;13.83;4.10;;;10.10;94.40;;;;;;5071911;28;20457;-81
2023/03/20 11:03:28;;;;;;;15.63;5.90;;;9.90;94.60;;;;;;5072379;28;20494;-81
2023/03/20 11:06:00;;;;;;;9.87;3.83;;;9.90;95.00;;;;;;5054391;28;20474;-80
2023/03/20 11:08:35;;;;;;;13.73;4.87;;;10.00;94.70;;;;;;5053076;28;20467;-80
2023/03/20 11:11:03;;;;;;;12.73;4.53;;;10.10;94.70;;;;;;5070568;28;20454;-81
2023/03/20 11:13:33;;;;;;;16.07;4.33;;;9.90;94.00;;;;;;5071461;28;20974;-80
2023/03/20 11:16:10;;;;;;;12.20;4.73;;;10.00;95.30;;;;;;5071891;28;20485;-81
2023/03/20 11:18:40;;;;;;;10.20;4.20;;;10.00;95.20;;;;;;5071371;28;20474;-81
2023/03/20 11:21:14;;;;;;;10.00;4.70;;;10.10;96.90;;;;;;5070815;28;20836;-81
2023/03/20 11:23:42;;;;;;;13.40;4.50;;;10.00;97.60;;;;;;5054867;28;20891;-80
2023/03/20 11:26:15;;;;;;;17.07;5.90;;;9.70;99.70;;;;;;5071976;28;20479;-81
2023/03/20 11:28:46;;;;;;;9.17;4.00;;;9.60;99.80;;;;;;5071982;28;20830;-81
2023/03/20 11:31:19;;;;;;;14.17;4.00;;;9.60;99.90;;;;;;5071792;28;20457;-81
2023/03/20 11:33:50;;;;;;;9.97;3.57;;;9.20;99.90;;;;;;5071797;28;20462;-81
2023/03/20 11:36:23;;;;;;;10.97;4.00;;;9.30;99.90;;;;;;5072511;28;20447;-81
2023/03/20 11:38:53;;;;;;;8.17;3.50;;;9.30;99.90;;;;;;5054473;28;20565;-81
2023/03/20 11:41:25;;;;;;;8.20;3.90;;;9.20;99.90;;;;;;5071091;28;20451;-82
2023/03/20 11:43:52;;;;;;;17.03;6.10;;;9.20;99.90;;;;;;5071529;28;20463;-81
2023/03/20 11:46:22;;;;;;;6.10;2.80;;;9.10;99.90;;;;;;5053392;28;20496;-82
2023/03/20 11:49:03;;;;;;;7.77;2.67;;;9.10;99.90;;;;;;5071434;28;20508;-82
2023/03/20 11:51:32;;;;;;;9.73;2.47;;;8.90;99.90;;;;;;5072218;28;20874;-83
2023/03/20 11:54:03;;;;;;;9.50;2.40;;;8.80;99.90;;;;;;5071295;28;20446;-83
2023/03/20 11:56:32;;;;;;;7.60;2.90;;;8.70;99.90;;;;;;5071252;28;20450;-83
2023/03/20 11:59:03;;;;;;;11.40;3.77;;;8.70;99.90;;;;;;5052228;28;20896;-82
2023/03/20 12:01:43;;;;;;;7.07;2.77;;;8.80;99.90;;;;;;5070829;28;20454;-82
2023/03/20 12:04:12;;;;;;;5.93;2.20;;;8.90;99.90;;;;;;5071081;28;20485;-83
2023/03/20 12:06:45;;;;;;;7.97;2.80;;;9.10;99.90;;;;;;5070855;28;20811;-83
2023/03/20 12:09:38;;;;;;;7.00;2.77;;;9.30;99.90;;;;;;5070612;28;20536;-83
2023/03/20 12:12:12;;;;;;;8.13;3.30;;;9.30;99.90;;;;;;5069782;28;20541;-83
2023/03/20 12:14:45;;;;;;;9.03;3.53;;;9.60;99.90;;;;;;5070598;28;20827;-83
2023/03/20 12:17:35;;;;;;;7.00;2.90;;;9.80;99.90;;;;;;5070792;28;20980;-81
2023/03/20 12:20:06;;;;;;;9.10;3.03;;;9.90;99.90;;;;;;5070567;28;20450;-82
2023/03/20 12:22:37;;;;;;;9.23;3.10;;;10.10;99.90;;;;;;5070553;28;20942;-82
2023/03/20 12:25:15;;;;;;;10.83;3.47;;;10.10;99.90;;;;;;5071286;28;20515;-82
2023/03/20 12:27:47;;;;;;;10.53;3.73;;;10.20;99.90;;;;;;5053147;28;20539;-82
2023/03/20 12:30:19;;;;;;;12.90;3.90;;;10.20;99.90;;;;;;5071645;28;20954;-82
2023/03/20 12:32:52;;;;;;;8.63;3.43;;;10.10;99.90;;;;;;5070446;28;20450;-83
2023/03/20 12:35:23;;;;;;;9.63;3.13;;;10.20;99.90;;;;;;5070477;28;20979;-82
2023/03/20 12:37:52;;;;;;;6.67;3.03;;;10.20;99.90;;;;;;5052712;28;20883;-81
2023/03/20 12:40:27;;;;;;;6.03;2.60;;;10.40;99.90;;;;;;5070948;28;20454;-81
2023/03/20 12:43:03;;;;;;;9.50;3.53;;;10.60;99.90;;;;;;5070986;28;20477;-81
2023/03/20 12:45:37;;;;;;;10.63;3.93;;;10.90;99.90;;;;;;5071176;28;20560;-81
2023/03/20 12:48:18;;;;;;;11.27;3.23;;;11.10;99.90;;;;;;5036360;28;20486;-81
2023/03/20 12:50:50;;;;;;;9.90;3.20;;;11.20;99.90;;;;;;5069963;28;20454;-82
2023/03/20 12:53:37;;;;;;;10.80;3.50;;;11.30;99.90;;;;;;5070866;28;20450;-84